Hlavní strana
METAR-TAF:

METAR-TAF

Letiště :

Hassi R'Mel, Alžírsko

zeměpisná šířka: 32-55-48N, zeměpisná délka: 003-18-44E, výška: 774 m

Aktuální stav počasí

Zpráva byla vytvořena před 50 minutami, v 13:00 UTC
Východní vítr 12 kt
Teplota 32°C
Vlhkost vzduchu 17%
Tlak 1023 hPa
Viditelnost 10 km a více
Žádná oblačnost pod 1500 m, nevyskytují se cumulonimby.

METAR: DAFH 261300Z 10012KT CAVOK 32/04 Q1023

Čas: 14:50 (13:50 UTC)

Předpověď počasí

Zpráva byla vytvořena před 2 hodinami a 50 minutami, v 11:00 UTC
Předpověď platná od 26 v 12 UTC do 26 v 21 UTC
Východní vítr 15 kt
Viditelnost 10 km a více
Žádná oblačnost pod 1500 m, nevyskytují se cumulonimby.

TAF: DAFH 261100Z 2612/2621 08015KT CAVOK

Stav a předpovědi počasí z více než 4 000 letišť (zprávy METAR a TAF).

Červené a žluté tečky na mapě představují dostupné meteorologické stanice.

Když kurzor umístíte na tečku, zobrazí se název stanice.

Pak kliknutím zobrazíte stav a předpověď počasí.

Chcete-li změnit mapu, kliknutím na zelené tlačítko se znaménkem +mapu přiblížíte, kliknutím na zelené tlačítko se znaménkem – mapu oddálíte a kliknutím na zelené šipky přejdete na sousední mapy.


METAR-TAF: